Time;durP1;ratioP1;P1;durP2;ratioP2;P2;SDS_P1;SDS_P2;PMS_P1;PMS_P2;Temp;Humidity;BMP_temperature;BMP_pressure;BME280_temperature;BME280_humidity;BME280_pressure;Samples;Min_cycle;Max_cycle;Signal;HPM_P1;HPM_P2
2022/08/09 00:00:37;;;;;;;4.38;2.70;;;13.60;99.90;;;;;;5051667;28;20032;-44
2022/08/09 00:03:02;;;;;;;3.70;2.50;;;12.40;99.90;;;;;;5051418;28;20048;-42
2022/08/09 00:05:30;;;;;;;4.50;2.60;;;12.20;99.90;;;;;;5052725;28;20040;-43
2022/08/09 00:07:56;;;;;;;4.60;2.35;;;12.20;99.90;;;;;;5051243;28;20041;-44
2022/08/09 00:10:21;;;;;;;3.85;2.30;;;12.20;99.90;;;;;;5051912;28;20041;-44
2022/08/09 00:12:49;;;;;;;3.40;1.88;;;12.20;99.90;;;;;;5051462;28;20310;-42
2022/08/09 00:15:15;;;;;;;6.65;2.40;;;12.20;99.90;;;;;;5050428;28;20156;-44
2022/08/09 00:17:41;;;;;;;3.97;2.40;;;12.20;99.90;;;;;;5050399;28;20060;-42
2022/08/09 00:20:07;;;;;;;3.50;1.83;;;13.30;99.90;;;;;;5051020;28;20072;-44
2022/08/09 00:22:33;;;;;;;4.13;2.00;;;12.00;99.90;;;;;;5050694;28;20055;-42
2022/08/09 00:24:58;;;;;;;4.40;1.98;;;12.00;99.90;;;;;;5051651;28;20052;-45
2022/08/09 00:27:24;;;;;;;3.92;1.92;;;12.50;99.90;;;;;;5050674;28;20621;-44
2022/08/09 00:29:50;;;;;;;3.40;2.00;;;12.30;99.90;;;;;;5050874;28;20098;-44
2022/08/09 00:32:16;;;;;;;3.80;2.50;;;12.00;99.90;;;;;;5055147;28;20036;-41
2022/08/09 00:34:42;;;;;;;5.60;2.70;;;12.20;99.90;;;;;;5056888;28;20087;-41
2022/08/09 00:37:08;;;;;;;4.40;2.85;;;12.00;99.90;;;;;;5054522;28;20969;-41
2022/08/09 00:39:34;;;;;;;4.78;2.40;;;11.70;99.90;;;;;;5054918;28;20044;-40
2022/08/09 00:41:59;;;;;;;3.97;2.15;;;12.20;99.90;;;;;;5055172;28;20033;-40
2022/08/09 00:44:27;;;;;;;7.00;2.67;;;11.70;99.90;;;;;;5055694;28;20037;-42
2022/08/09 00:46:54;;;;;;;4.00;2.33;;;12.50;99.90;;;;;;5054426;28;20120;-40
2022/08/09 00:49:20;;;;;;;5.55;2.30;;;11.70;99.90;;;;;;5054125;28;20048;-39
2022/08/09 00:51:48;;;;;;;4.47;2.35;;;11.90;99.90;;;;;;5056113;28;20044;-39
2022/08/09 00:54:14;;;;;;;5.30;2.53;;;12.10;99.90;;;;;;5055009;28;20075;-39
2022/08/09 00:56:40;;;;;;;5.32;2.42;;;11.60;99.90;;;;;;5055458;28;20087;-39
2022/08/09 00:59:06;;;;;;;6.15;2.45;;;12.50;99.90;;;;;;5054908;28;20072;-39
2022/08/09 01:01:36;;;;;;;6.45;3.30;;;11.70;99.90;;;;;;5052377;28;20036;-40
2022/08/09 01:04:19;;;;;;;5.45;3.28;;;11.60;99.90;;;;;;5055558;28;20040;-40
2022/08/09 01:07:03;;;;;;;7.40;3.25;;;11.60;99.90;;;;;;5053849;28;20881;-39
2022/08/09 01:09:38;;;;;;;6.35;3.63;;;11.90;99.90;;;;;;5054309;28;20055;-39
2022/08/09 01:12:13;;;;;;;5.00;3.22;;;11.70;99.90;;;;;;5052513;28;20500;-40
2022/08/09 01:14:54;;;;;;;5.78;3.30;;;11.60;99.90;;;;;;5054478;28;20032;-39
2022/08/09 01:17:40;;;;;;;5.22;3.10;;;11.60;99.90;;;;;;5053152;28;20068;-39
2022/08/09 01:20:06;;;;;;;5.60;3.33;;;12.70;99.90;;;;;;5055249;28;20049;-41
2022/08/09 01:23:20;;;;;;;4.85;3.13;;;11.70;99.90;;;;;;5055496;28;20386;-40
2022/08/09 01:26:12;;;;;;;4.32;2.58;;;11.40;99.90;;;;;;5054010;28;21436;-40
2022/08/09 01:28:42;;;;;;;4.00;2.10;;;11.40;99.90;;;;;;5054473;28;20118;-40
2022/08/09 01:31:14;;;;;;;4.13;2.70;;;11.20;99.90;;;;;;5054052;28;20412;-41
2022/08/09 01:33:43;;;;;;;3.75;2.40;;;11.50;99.90;;;;;;5055040;28;20071;-40
2022/08/09 01:36:15;;;;;;;3.20;1.90;;;11.40;99.90;;;;;;5053991;28;20044;-40
2022/08/09 01:38:44;;;;;;;2.90;1.67;;;11.60;99.90;;;;;;5054298;28;20043;-41
2022/08/09 01:41:19;;;;;;;5.25;1.70;;;11.10;99.90;;;;;;5054375;28;20128;-40
2022/08/09 01:43:48;;;;;;;3.05;1.65;;;12.60;99.90;;;;;;5053465;28;20475;-41
2022/08/09 01:46:15;;;;;;;18.83;2.65;;;11.30;99.90;;;;;;5053395;28;21221;-41
2022/08/09 01:48:42;;;;;;;4.88;2.88;;;11.00;99.90;;;;;;5054548;28;20036;-40
2022/08/09 01:51:09;;;;;;;4.70;2.55;;;11.00;99.90;;;;;;5053433;28;20041;-41
2022/08/09 01:53:37;;;;;;;4.38;2.45;;;12.80;99.90;;;;;;5053168;28;20047;-41
2022/08/09 01:56:04;;;;;;;6.95;2.58;;;11.20;99.90;;;;;;5053958;28;20582;-42
2022/08/09 01:58:32;;;;;;;3.67;2.30;;;11.10;99.90;;;;;;5054458;28;20114;-40
2022/08/09 02:00:59;;;;;;;4.40;2.45;;;12.70;99.90;;;;;;5053039;28;20048;-44
2022/08/09 02:03:29;;;;;;;3.78;2.20;;;12.30;99.90;;;;;;5054301;28;20040;-42
2022/08/09 02:05:55;;;;;;;3.80;2.50;;;10.90;99.90;;;;;;5053784;28;20556;-42
2022/08/09 02:08:23;;;;;;;3.97;2.10;;;11.10;99.90;;;;;;5052822;28;20492;-43
2022/08/09 02:10:53;;;;;;;4.85;2.70;;;10.90;99.90;;;;;;5054028;28;20093;-42
2022/08/09 02:13:21;;;;;;;6.50;3.20;;;11.00;99.90;;;;;;5052919;28;20448;-43
2022/08/09 02:15:50;;;;;;;4.10;2.80;;;11.70;99.90;;;;;;5053021;28;20048;-42
2022/08/09 02:18:19;;;;;;;4.70;2.63;;;11.70;99.90;;;;;;5054427;28;20039;-43
2022/08/09 02:20:56;;;;;;;4.47;2.50;;;10.90;99.90;;;;;;5053758;28;20045;-46
2022/08/09 02:23:40;;;;;;;4.07;2.47;;;11.10;99.90;;;;;;5052813;28;20048;-44
2022/08/09 02:26:08;;;;;;;4.75;2.22;;;12.10;99.90;;;;;;5053149;28;20123;-43
2022/08/09 02:28:40;;;;;;;3.75;2.20;;;10.90;99.90;;;;;;5054711;28;20048;-41
2022/08/09 02:31:14;;;;;;;4.63;2.40;;;10.80;99.90;;;;;;5054624;28;20071;-43
2022/08/09 02:33:43;;;;;;;4.65;2.28;;;10.90;99.90;;;;;;5055238;28;20040;-44
2022/08/09 02:36:17;;;;;;;4.03;1.80;;;11.60;99.90;;;;;;5052812;28;20032;-43
2022/08/09 02:38:54;;;;;;;5.90;2.10;;;10.70;99.90;;;;;;5054412;28;20059;-43
2022/08/09 02:41:27;;;;;;;6.35;2.13;;;11.20;99.90;;;;;;5053669;28;20502;-45
2022/08/09 02:43:59;;;;;;;5.32;2.55;;;11.20;99.90;;;;;;5054064;28;20045;-40
2022/08/09 02:46:28;;;;;;;5.05;2.53;;;10.80;99.90;;;;;;5052572;28;20163;-41
2022/08/09 02:48:58;;;;;;;4.72;2.40;;;10.60;99.90;;;;;;5052839;28;20036;-42
2022/08/09 02:51:26;;;;;;;5.20;2.20;;;10.60;99.90;;;;;;5053458;28;20040;-41
2022/08/09 02:53:56;;;;;;;4.10;2.00;;;10.60;99.90;;;;;;5050966;28;20065;-42
2022/08/09 02:56:24;;;;;;;5.50;2.03;;;10.90;99.90;;;;;;5051017;28;20175;-43
2022/08/09 02:58:51;;;;;;;3.45;1.92;;;10.70;99.90;;;;;;5051735;28;20068;-41
2022/08/09 03:01:18;;;;;;;4.88;2.25;;;11.60;99.90;;;;;;5052413;28;20051;-42
2022/08/09 03:03:45;;;;;;;3.97;2.03;;;10.60;99.90;;;;;;5051894;28;20127;-41
2022/08/09 03:06:13;;;;;;;4.13;2.00;;;10.50;99.90;;;;;;5051402;28;20170;-44
2022/08/09 03:08:44;;;;;;;4.32;2.42;;;10.60;99.90;;;;;;5052225;28;20040;-41
2022/08/09 03:11:16;;;;;;;5.40;3.05;;;10.50;99.90;;;;;;5052290;28;20497;-42
2022/08/09 03:13:44;;;;;;;5.00;2.80;;;10.60;99.90;;;;;;5051914;28;20070;-42
2022/08/09 03:16:11;;;;;;;7.47;2.78;;;12.70;99.90;;;;;;5051099;28;20067;-42
2022/08/09 03:18:37;;;;;;;5.78;2.83;;;10.60;99.90;;;;;;5052060;28;20423;-41
2022/08/09 03:21:05;;;;;;;6.88;3.00;;;10.40;99.90;;;;;;5052502;28;20592;-41
2022/08/09 03:23:31;;;;;;;4.68;2.83;;;10.50;99.90;;;;;;5052082;28;20679;-44
2022/08/09 03:25:59;;;;;;;5.47;2.45;;;10.70;99.90;;;;;;5050984;28;20053;-41
2022/08/09 03:28:26;;;;;;;3.42;1.90;;;10.40;99.90;;;;;;5052356;28;20033;-42
2022/08/09 03:30:54;;;;;;;4.30;1.90;;;10.50;99.90;;;;;;5052573;28;20127;-40
2022/08/09 03:33:20;;;;;;;3.53;2.00;;;10.40;99.90;;;;;;5051392;28;20139;-40
2022/08/09 03:35:50;;;;;;;3.92;1.83;;;10.40;99.90;;;;;;5050998;28;20636;-40
2022/08/09 03:38:16;;;;;;;4.20;1.75;;;10.40;99.90;;;;;;5050867;28;20372;-42
2022/08/09 03:40:44;;;;;;;4.60;1.77;;;10.80;99.90;;;;;;5052017;28;20904;-41
2022/08/09 03:43:10;;;;;;;3.03;1.88;;;10.90;99.90;;;;;;5052264;28;20119;-40
2022/08/09 03:45:36;;;;;;;5.70;2.00;;;10.90;99.90;;;;;;5053004;28;20139;-42
2022/08/09 03:48:02;;;;;;;3.25;1.80;;;10.30;99.90;;;;;;5050841;28;20079;-41
2022/08/09 03:50:28;;;;;;;4.15;1.80;;;10.30;99.90;;;;;;5052206;28;20043;-42
2022/08/09 03:52:58;;;;;;;5.03;2.20;;;10.30;99.90;;;;;;5051945;28;20051;-41
2022/08/09 03:55:26;;;;;;;3.60;1.92;;;10.40;99.90;;;;;;5052785;28;20524;-41
2022/08/09 03:57:52;;;;;;;3.45;1.80;;;10.40;99.90;;;;;;5052463;28;20146;-42
2022/08/09 04:00:18;;;;;;;4.15;1.45;;;10.30;99.90;;;;;;5052713;28;20125;-40
2022/08/09 04:02:46;;;;;;;3.90;1.40;;;10.40;99.90;;;;;;5051971;28;20075;-40
2022/08/09 04:05:12;;;;;;;3.67;1.50;;;10.20;99.90;;;;;;5053655;28;20048;-40
2022/08/09 04:07:38;;;;;;;4.28;1.35;;;10.10;99.90;;;;;;5056778;28;20032;-41
2022/08/09 04:10:05;;;;;;;4.85;1.38;;;10.30;99.90;;;;;;5056226;28;20044;-40
2022/08/09 04:12:41;;;;;;;7.18;1.90;;;10.20;99.90;;;;;;5056676;28;20047;-41
2022/08/09 04:15:08;;;;;;;9.65;2.08;;;10.30;99.90;;;;;;5054684;28;20378;-41
2022/08/09 04:17:34;;;;;;;10.70;1.98;;;10.00;99.90;;;;;;5055282;28;20738;-40
2022/08/09 04:20:02;;;;;;;5.82;2.05;;;10.20;99.90;;;;;;5056325;28;20127;-40
2022/08/09 04:22:27;;;;;;;4.60;1.73;;;10.40;99.90;;;;;;5055498;28;20127;-40
2022/08/09 04:24:53;;;;;;;2.45;1.35;;;10.40;99.90;;;;;;5054861;28;20501;-39
2022/08/09 04:27:21;;;;;;;2.75;1.20;;;10.30;99.90;;;;;;5055937;28;20551;-41
2022/08/09 04:29:46;;;;;;;2.72;1.42;;;11.40;99.90;;;;;;5055920;28;20690;-40
2022/08/09 04:32:12;;;;;;;2.42;1.30;;;11.50;99.90;;;;;;5055237;28;20033;-39
2022/08/09 04:34:38;;;;;;;4.47;1.50;;;10.20;99.90;;;;;;5055673;28;20036;-40
2022/08/09 04:37:04;;;;;;;5.35;1.83;;;10.30;99.90;;;;;;5055616;28;20131;-40
2022/08/09 04:39:29;;;;;;;13.52;2.40;;;10.40;99.90;;;;;;5056473;28;20489;-41
2022/08/09 04:41:55;;;;;;;11.38;2.60;;;10.40;99.90;;;;;;5055125;28;20062;-40
2022/08/09 04:44:23;;;;;;;8.48;2.67;;;10.60;99.90;;;;;;5054636;28;20036;-40
2022/08/09 04:46:48;;;;;;;4.82;2.72;;;10.40;99.90;;;;;;5054961;28;20040;-40
2022/08/09 04:49:14;;;;;;;6.07;2.83;;;10.50;99.90;;;;;;5054221;28;20079;-41
2022/08/09 04:51:43;;;;;;;5.20;2.60;;;11.20;99.90;;;;;;5055294;28;20064;-41
2022/08/09 04:54:09;;;;;;;6.03;2.25;;;10.50;99.90;;;;;;5054164;28;22081;-40
2022/08/09 04:56:34;;;;;;;4.03;2.05;;;11.40;99.90;;;;;;5054623;28;20040;-40
2022/08/09 04:59:00;;;;;;;4.72;2.05;;;10.60;99.90;;;;;;5055244;28;20044;-41
2022/08/09 05:01:26;;;;;;;5.15;1.90;;;10.70;99.90;;;;;;5055079;28;20476;-40
2022/08/09 05:03:51;;;;;;;14.63;1.90;;;11.40;99.90;;;;;;5056554;28;20386;-40
2022/08/09 05:06:17;;;;;;;3.80;1.98;;;11.90;99.90;;;;;;5054886;28;20135;-42
2022/08/09 05:08:43;;;;;;;19.10;2.80;;;10.90;99.90;;;;;;5054933;28;20033;-41
2022/08/09 05:11:08;;;;;;;5.78;2.60;;;11.60;99.90;;;;;;5054437;28;20067;-42
2022/08/09 05:13:34;;;;;;;16.75;2.30;;;11.50;99.90;;;;;;5054488;28;20094;-40
2022/08/09 05:16:02;;;;;;;5.63;2.38;;;11.10;99.90;;;;;;5054580;28;20118;-41
2022/08/09 05:18:32;;;;;;;10.95;2.03;;;11.20;99.90;;;;;;5055021;28;20120;-40
2022/08/09 05:20:59;;;;;;;3.60;1.95;;;11.30;99.90;;;;;;5053560;28;20052;-41
2022/08/09 05:23:26;;;;;;;4.40;2.30;;;11.50;99.90;;;;;;5055688;28;20495;-40
2022/08/09 05:25:52;;;;;;;3.60;1.90;;;11.60;99.90;;;;;;5054077;28;20059;-42
2022/08/09 05:28:19;;;;;;;3.65;1.90;;;12.10;99.90;;;;;;5053557;28;20839;-40
2022/08/09 05:30:45;;;;;;;3.38;1.63;;;12.60;99.90;;;;;;5054989;28;20127;-41
2022/08/09 05:33:10;;;;;;;4.13;2.20;;;13.40;99.90;;;;;;5052656;28;20067;-41
2022/08/09 05:35:36;;;;;;;3.72;1.88;;;11.90;99.90;;;;;;5053022;28;20037;-40
2022/08/09 05:38:02;;;;;;;4.07;1.98;;;12.20;99.90;;;;;;5054077;28;20406;-43
2022/08/09 05:40:28;;;;;;;3.70;2.03;;;13.10;99.90;;;;;;5053280;28;20571;-42
2022/08/09 05:42:56;;;;;;;4.53;2.17;;;12.90;99.90;;;;;;5053825;28;20047;-40
2022/08/09 05:45:24;;;;;;;4.78;2.40;;;12.80;99.90;;;;;;5053045;28;20052;-42
2022/08/09 05:47:50;;;;;;;3.60;2.10;;;12.90;99.90;;;;;;5053731;28;20036;-42
2022/08/09 05:50:15;;;;;;;7.72;2.72;;;14.30;99.90;;;;;;5053661;28;20037;-44
2022/08/09 05:52:42;;;;;;;10.48;3.13;;;13.90;99.90;;;;;;5054492;28;20622;-42
2022/08/09 05:55:10;;;;;;;5.28;2.88;;;14.70;99.90;;;;;;5054419;28;20044;-44
2022/08/09 05:57:36;;;;;;;7.38;2.97;;;13.60;99.90;;;;;;5052431;28;20033;-41
2022/08/09 06:00:08;;;;;;;4.63;2.83;;;14.70;99.90;;;;;;5052882;28;20170;-42
2022/08/09 06:02:34;;;;;;;8.13;3.35;;;14.40;99.90;;;;;;5053849;28;20149;-44
2022/08/09 06:05:01;;;;;;;6.45;3.28;;;15.60;99.90;;;;;;5054629;28;20033;-41
2022/08/09 06:07:29;;;;;;;6.43;3.20;;;15.30;99.90;;;;;;5053525;28;20052;-43
2022/08/09 06:09:54;;;;;;;7.60;3.30;;;14.50;99.90;;;;;;5052952;28;20440;-43
2022/08/09 06:12:21;;;;;;;7.57;3.58;;;17.40;99.90;;;;;;5054688;28;20032;-48
2022/08/09 06:14:48;;;;;;;5.63;3.70;;;16.90;99.90;;;;;;5053881;28;20590;-47
2022/08/09 06:17:14;;;;;;;7.43;3.22;;;17.10;99.90;;;;;;5054136;28;20056;-46
2022/08/09 06:19:40;;;;;;;5.38;3.38;;;18.80;99.90;;;;;;5054653;28;20528;-46
2022/08/09 06:22:06;;;;;;;10.15;4.05;;;18.20;99.90;;;;;;5054269;28;21940;-44
2022/08/09 06:24:31;;;;;;;7.50;3.42;;;17.90;99.90;;;;;;5054677;28;20530;-47
2022/08/09 06:26:57;;;;;;;6.63;3.58;;;18.90;99.90;;;;;;5053827;28;20079;-47
2022/08/09 06:29:23;;;;;;;8.00;3.78;;;17.50;99.90;;;;;;5053368;28;20052;-45
2022/08/09 06:31:49;;;;;;;7.43;4.70;;;17.70;99.90;;;;;;5054565;28;20097;-47
2022/08/09 06:34:15;;;;;;;6.63;4.25;;;17.60;99.90;;;;;;5054531;28;20036;-46
2022/08/09 06:36:40;;;;;;;10.77;4.55;;;17.70;99.90;;;;;;5054342;28;20400;-47
2022/08/09 06:39:10;;;;;;;9.13;4.53;;;17.80;99.90;;;;;;5054669;28;20040;-47
2022/08/09 06:41:36;;;;;;;8.88;4.57;;;19.40;99.90;;;;;;5054491;28;20051;-46
2022/08/09 06:44:02;;;;;;;6.70;3.58;;;20.50;99.90;;;;;;5053331;28;20047;-44
2022/08/09 06:46:29;;;;;;;7.47;4.63;;;18.30;99.90;;;;;;5052323;28;20052;-47
2022/08/09 06:48:55;;;;;;;12.98;5.28;;;20.40;99.90;;;;;;5054085;28;20166;-48
2022/08/09 06:51:20;;;;;;;8.88;5.18;;;18.50;99.90;;;;;;5053792;28;20093;-47
2022/08/09 06:53:46;;;;;;;9.32;4.32;;;19.30;99.90;;;;;;5052424;28;20121;-49
2022/08/09 06:56:11;;;;;;;8.32;4.18;;;20.50;99.90;;;;;;5052531;28;20040;-47
2022/08/09 06:58:38;;;;;;;7.38;3.53;;;19.50;99.90;;;;;;5053637;28;20388;-47
2022/08/09 07:01:04;;;;;;;5.70;3.38;;;20.20;93.70;;;;;;5052657;28;20159;-47
2022/08/09 07:03:33;;;;;;;5.82;3.20;;;21.30;73.60;;;;;;5052277;28;20108;-43
2022/08/09 07:05:58;;;;;;;7.88;3.33;;;21.70;43.30;;;;;;5051963;28;20060;-48
2022/08/09 07:08:24;;;;;;;6.22;3.08;;;22.40;31.50;;;;;;5052920;28;20036;-46
2022/08/09 07:10:50;;;;;;;9.52;3.30;;;23.00;1.00;;;;;;5054270;28;20041;-48
2022/08/09 07:13:15;;;;;;;8.10;2.95;;;22.80;1.00;;;;;;5052620;28;20106;-43
2022/08/09 07:15:43;;;;;;;9.35;3.25;;;23.10;1.00;;;;;;5051570;28;20116;-46
2022/08/09 07:18:09;;;;;;;6.25;3.65;;;23.40;99.90;;;;;;5052672;28;20052;-45
2022/08/09 07:20:34;;;;;;;5.22;2.28;;;24.20;99.90;;;;;;5053253;28;20289;-46
2022/08/09 07:23:01;;;;;;;6.68;2.38;;;24.90;99.90;;;;;;5052376;28;20086;-48
2022/08/09 07:25:27;;;;;;;6.63;2.40;;;26.10;99.90;;;;;;5051751;28;20052;-45
2022/08/09 07:27:52;;;;;;;4.80;2.30;;;26.40;99.90;;;;;;5052568;28;20582;-48
2022/08/09 07:30:20;;;;;;;5.93;2.30;;;26.50;99.90;;;;;;5052534;28;20040;-48
2022/08/09 07:32:46;;;;;;;6.57;2.67;;;26.20;99.90;;;;;;5051945;28;20056;-47
2022/08/09 07:35:12;;;;;;;6.45;2.08;;;26.60;99.90;;;;;;5051692;28;20041;-44
2022/08/09 07:37:40;;;;;;;6.00;2.30;;;26.40;99.90;;;;;;5052071;28;20036;-47
2022/08/09 07:40:06;;;;;;;3.60;1.50;;;26.20;99.90;;;;;;5052567;28;20037;-44
2022/08/09 07:42:32;;;;;;;3.53;1.70;;;26.60;99.90;;;;;;5052796;28;20081;-46
2022/08/09 07:44:58;;;;;;;3.53;1.80;;;26.60;99.90;;;;;;5052171;28;20136;-46
2022/08/09 07:47:23;;;;;;;6.22;1.80;;;26.00;99.90;;;;;;5052878;28;20048;-48
2022/08/09 07:49:49;;;;;;;6.40;1.90;;;27.40;99.90;;;;;;5053488;28;20076;-47
2022/08/09 07:52:15;;;;;;;4.53;1.60;;;25.20;99.90;;;;;;5053908;28;20036;-48
2022/08/09 07:54:41;;;;;;;4.65;1.42;;;24.60;99.90;;;;;;5053568;28;20381;-48
2022/08/09 07:57:07;;;;;;;4.35;1.33;;;24.30;99.90;;;;;;5051923;28;20070;-44
2022/08/09 07:59:33;;;;;;;5.47;1.50;;;23.70;99.90;;;;;;5053177;28;20037;-46
2022/08/09 08:01:59;;;;;;;4.70;1.40;;;23.50;99.90;;;;;;5052482;28;20389;-49
2022/08/09 08:04:24;;;;;;;4.82;1.33;;;23.30;99.90;;;;;;5053428;28;20044;-47
2022/08/09 08:06:50;;;;;;;2.97;1.10;;;23.10;99.90;;;;;;5052558;28;20111;-43
2022/08/09 08:09:16;;;;;;;3.55;1.10;;;23.00;99.90;;;;;;5052964;28;20043;-45
2022/08/09 08:11:42;;;;;;;3.30;1.17;;;23.50;99.90;;;;;;5053381;28;20123;-47
2022/08/09 08:14:08;;;;;;;3.28;1.00;;;24.30;99.90;;;;;;5053034;28;20056;-46
2022/08/09 08:16:34;;;;;;;3.28;1.20;;;22.50;99.90;;;;;;5052906;28;20041;-44
2022/08/09 08:19:00;;;;;;;3.47;1.02;;;21.80;99.90;;;;;;5052962;28;20663;-48
2022/08/09 08:21:27;;;;;;;3.67;1.02;;;22.50;99.90;;;;;;5052335;28;20044;-47
2022/08/09 08:23:53;;;;;;;4.20;1.33;;;21.70;99.90;;;;;;5050925;28;20044;-44
2022/08/09 08:26:20;;;;;;;4.18;1.60;;;21.70;99.90;;;;;;5051225;28;20059;-44
2022/08/09 08:28:46;;;;;;;4.72;1.50;;;20.00;99.90;;;;;;5052103;28;20123;-48
2022/08/09 08:31:12;;;;;;;8.75;1.65;;;21.90;99.90;;;;;;5052435;28;20048;-45
2022/08/09 08:33:39;;;;;;;6.93;1.15;;;23.80;99.90;;;;;;5051072;28;20432;-46
2022/08/09 08:36:05;;;;;;;5.03;1.60;;;21.80;99.90;;;;;;5051577;28;20636;-47
2022/08/09 08:38:31;;;;;;;2.58;0.98;;;21.90;99.90;;;;;;5052553;28;20225;-48
2022/08/09 08:40:59;;;;;;;2.55;0.90;;;21.90;99.90;;;;;;5051656;28;20515;-44
2022/08/09 08:43:26;;;;;;;3.28;1.33;;;21.80;99.90;;;;;;5050163;28;20053;-44
2022/08/09 08:45:56;;;;;;;4.05;1.50;;;24.10;99.90;;;;;;5051654;28;20048;-47
2022/08/09 08:48:23;;;;;;;3.85;1.40;;;21.60;99.90;;;;;;5051378;28;20127;-47
2022/08/09 08:50:48;;;;;;;2.53;0.73;;;21.60;99.90;;;;;;5051420;28;20412;-48
2022/08/09 08:53:15;;;;;;;3.80;1.10;;;22.00;99.90;;;;;;5053338;28;20037;-47
2022/08/09 08:55:42;;;;;;;3.00;0.85;;;21.20;99.90;;;;;;5055351;28;20036;-47
2022/08/09 08:58:09;;;;;;;3.95;1.13;;;21.00;99.90;;;;;;5054739;28;20108;-44
2022/08/09 09:00:35;;;;;;;3.90;0.95;;;21.80;99.90;;;;;;5055452;28;20385;-47
2022/08/09 09:03:03;;;;;;;6.80;1.08;;;20.60;99.90;;;;;;5054705;28;20069;-45
2022/08/09 09:05:30;;;;;;;4.13;1.10;;;20.60;99.90;;;;;;5054451;28;20823;-45
2022/08/09 09:07:58;;;;;;;3.05;1.17;;;21.20;99.90;;;;;;5054583;28;20966;-48
2022/08/09 09:10:27;;;;;;;3.92;1.20;;;20.30;99.90;;;;;;5054855;28;20041;-46
2022/08/09 09:12:54;;;;;;;4.78;1.23;;;20.30;99.90;;;;;;5054983;28;21219;-47
2022/08/09 09:15:19;;;;;;;4.60;1.00;;;20.10;99.90;;;;;;5055817;28;20072;-43
2022/08/09 09:17:45;;;;;;;2.97;0.80;;;20.00;99.90;;;;;;5055423;28;20157;-48
2022/08/09 09:20:12;;;;;;;2.50;0.70;;;22.40;99.90;;;;;;5053806;28;20779;-45
2022/08/09 09:22:54;;;;;;;3.42;0.95;;;20.20;99.90;;;;;;5054809;28;20484;-44
2022/08/09 09:25:31;;;;;;;3.58;0.90;;;22.60;99.90;;;;;;5054480;28;20151;-48
2022/08/09 09:27:59;;;;;;;2.92;0.80;;;20.50;99.90;;;;;;5054149;28;20044;-43
2022/08/09 09:30:25;;;;;;;2.88;0.80;;;22.30;99.90;;;;;;5054888;28;20036;-48
2022/08/09 09:33:09;;;;;;;2.42;0.95;;;20.60;99.90;;;;;;5054616;28;20082;-48
2022/08/09 09:35:57;;;;;;;6.30;1.13;;;20.50;99.90;;;;;;5054769;28;20041;-42
2022/08/09 09:38:43;;;;;;;2.90;0.98;;;20.40;99.90;;;;;;5054250;28;20998;-45
2022/08/09 09:41:09;;;;;;;3.95;1.30;;;20.50;99.90;;;;;;5054380;28;20135;-46
2022/08/09 09:43:35;;;;;;;6.47;1.83;;;20.30;99.90;;;;;;5053347;28;20492;-45
2022/08/09 09:46:01;;;;;;;7.97;1.42;;;20.40;99.90;;;;;;5053323;28;20041;-45
2022/08/09 09:48:31;;;;;;;4.22;1.17;;;20.60;99.90;;;;;;5052725;28;20033;-48
2022/08/09 09:50:58;;;;;;;4.45;1.00;;;20.60;99.90;;;;;;5053693;28;20936;-45
2022/08/09 09:53:26;;;;;;;3.97;1.42;;;20.60;99.90;;;;;;5054481;28;20048;-45
2022/08/09 09:56:01;;;;;;;4.95;1.30;;;20.90;99.90;;;;;;5054160;28;20082;-47
2022/08/09 09:58:47;;;;;;;3.83;1.35;;;20.80;99.90;;;;;;5053575;28;20051;-48
2022/08/09 10:01:18;;;;;;;4.78;1.55;;;20.90;99.90;;;;;;5053666;28;20472;-45
2022/08/09 10:03:46;;;;;;;5.30;0.90;;;21.80;99.90;;;;;;5052614;28;20053;-48
2022/08/09 10:06:12;;;;;;;3.03;1.30;;;21.40;99.90;;;;;;5052820;28;20032;-45
2022/08/09 10:08:38;;;;;;;3.90;1.00;;;21.90;99.90;;;;;;5052592;28;20321;-49
2022/08/09 10:11:31;;;;;;;2.42;0.80;;;22.30;99.90;;;;;;5053314;28;20044;-47
2022/08/09 10:13:58;;;;;;;3.25;0.98;;;22.10;99.90;;;;;;5053427;28;20921;-44
2022/08/09 10:16:33;;;;;;;4.30;1.00;;;21.90;99.90;;;;;;5053533;28;20128;-48
2022/08/09 10:19:04;;;;;;;4.78;1.00;;;21.80;99.90;;;;;;5054281;28;20044;-47
2022/08/09 10:21:30;;;;;;;;;;;22.70;99.90;;;;;;5053096;28;20501;-46
2022/08/09 10:24:00;;;;;;;3.50;1.20;;;21.70;99.90;;;;;;5052503;28;20170;-48
2022/08/09 10:26:26;;;;;;;3.22;0.80;;;22.10;99.90;;;;;;5053025;28;20446;-45
2022/08/09 10:28:53;;;;;;;4.18;0.80;;;22.40;99.90;;;;;;5054401;28;20494;-49
2022/08/09 10:31:19;;;;;;;3.47;0.88;;;23.60;99.90;;;;;;5053841;28;20099;-48
2022/08/09 10:33:47;;;;;;;3.25;0.70;;;23.00;99.90;;;;;;5054217;28;20107;-47
2022/08/09 10:36:14;;;;;;;3.70;0.93;;;23.10;99.90;;;;;;5052698;28;20062;-45
2022/08/09 10:38:42;;;;;;;2.05;0.70;;;23.30;99.90;;;;;;5053711;28;20433;-48
2022/08/09 10:41:09;;;;;;;2.83;0.90;;;23.40;99.90;;;;;;5053049;28;20036;-47
2022/08/09 10:43:36;;;;;;;1.58;0.50;;;23.60;99.90;;;;;;5052510;28;20143;-44
2022/08/09 10:46:22;;;;;;;3.50;0.93;;;24.00;99.90;;;;;;5054042;28;20036;-46
2022/08/09 10:49:06;;;;;;;2.25;0.70;;;24.10;99.90;;;;;;5050131;28;20060;-47
2022/08/09 10:51:48;;;;;;;3.20;0.70;;;24.20;99.90;;;;;;5049234;28;20429;-47
2022/08/09 10:54:14;;;;;;;1.75;0.63;;;25.10;99.90;;;;;;5049880;28;20078;-44
2022/08/09 10:56:42;;;;;;;3.20;0.80;;;24.70;99.90;;;;;;5048450;28;20508;-48
2022/08/09 10:59:36;;;;;;;3.72;0.80;;;25.00;99.90;;;;;;5048442;28;20040;-47
2022/08/09 11:02:06;;;;;;;2.55;0.77;;;24.80;99.90;;;;;;5030343;28;20075;-49
2022/08/09 11:04:33;;;;;;;2.30;0.50;;;24.50;99.90;;;;;;5048012;28;20048;-48
2022/08/09 11:06:59;;;;;;;3.95;0.80;;;24.00;99.90;;;;;;5049135;28;20827;-48
2022/08/09 11:09:36;;;;;;;3.45;0.80;;;23.60;99.90;;;;;;5049663;28;20044;-44
2022/08/09 11:12:12;;;;;;;2.05;0.85;;;23.40;99.90;;;;;;5047842;28;20404;-46
2022/08/09 11:14:53;;;;;;;2.33;0.75;;;22.90;99.90;;;;;;5048032;28;20068;-47
2022/08/09 11:17:43;;;;;;;2.70;0.80;;;23.10;99.90;;;;;;5048392;28;20117;-43
2022/08/09 11:20:10;;;;;;;2.78;0.60;;;23.70;99.90;;;;;;5009318;28;21036;-46
2022/08/09 11:22:44;;;;;;;3.00;0.60;;;23.70;99.90;;;;;;5008304;28;20041;-47
2022/08/09 11:25:11;;;;;;;2.15;0.60;;;24.10;99.90;;;;;;5008601;28;20081;-49
2022/08/09 11:27:42;;;;;;;2.13;0.70;;;25.40;99.90;;;;;;4992382;28;20402;-46
2022/08/09 11:30:09;;;;;;;2.03;0.63;;;24.50;99.90;;;;;;4991534;28;20569;-46
2022/08/09 11:32:46;;;;;;;3.00;0.50;;;24.30;99.90;;;;;;5007324;28;20042;-45
2022/08/09 11:35:35;;;;;;;2.40;0.60;;;24.30;99.90;;;;;;5007622;28;20053;-46
2022/08/09 11:38:20;;;;;;;1.02;0.40;;;24.60;99.90;;;;;;5008848;28;21083;-45
2022/08/09 11:40:47;;;;;;;2.92;0.70;;;24.60;99.90;;;;;;5008756;28;20511;-44
2022/08/09 11:43:36;;;;;;;1.40;0.65;;;25.70;99.90;;;;;;5010074;28;20604;-45
2022/08/09 11:46:04;;;;;;;1.17;0.60;;;24.70;99.90;;;;;;5008587;28;20136;-41
2022/08/09 11:48:52;;;;;;;1.20;0.50;;;24.70;99.90;;;;;;5008499;28;20041;-46
2022/08/09 11:51:22;;;;;;;2.75;0.50;;;24.40;99.90;;;;;;5024605;28;20052;-44
2022/08/09 11:54:08;;;;;;;1.60;0.50;;;24.40;99.90;;;;;;5051135;28;20048;-44
2022/08/09 11:56:36;;;;;;;2.17;0.60;;;24.70;99.90;;;;;;5050463;28;20044;-48
2022/08/09 11:59:02;;;;;;;1.73;0.55;;;24.80;99.90;;;;;;5052099;28;20491;-45
2022/08/09 12:01:41;;;;;;;1.10;0.60;;;25.20;99.90;;;;;;5052511;28;20135;-44
2022/08/09 12:04:13;;;;;;;1.58;0.40;;;25.80;99.90;;;;;;5052029;28;20665;-46
2022/08/09 12:06:49;;;;;;;1.52;0.50;;;25.00;99.90;;;;;;5051192;28;20489;-45
2022/08/09 12:09:15;;;;;;;1.58;0.63;;;24.70;99.90;;;;;;5052327;28;20509;-46
2022/08/09 12:11:41;;;;;;;2.75;0.70;;;24.50;99.90;;;;;;5051638;28;20051;-47
2022/08/09 12:14:09;;;;;;;1.65;0.60;;;24.50;99.90;;;;;;5051287;28;20028;-44
2022/08/09 12:16:44;;;;;;;1.52;0.60;;;24.70;99.90;;;;;;5052018;28;20253;-45
2022/08/09 12:19:11;;;;;;;0.65;0.30;;;24.70;99.90;;;;;;5051616;28;20535;-48
2022/08/09 12:21:42;;;;;;;2.50;0.50;;;24.40;99.90;;;;;;5050954;28;20082;-45
2022/08/09 12:24:10;;;;;;;0.65;0.50;;;24.40;99.90;;;;;;5049177;28;20049;-48
2022/08/09 12:27:08;;;;;;;0.93;0.50;;;24.30;99.90;;;;;;5051221;28;20137;-47
2022/08/09 12:29:31;;;;;;;1.65;0.50;;;24.50;99.90;;;;;;5055203;28;20098;-45
2022/08/09 12:32:09;;;;;;;0.57;0.40;;;24.50;99.90;;;;;;5054753;28;20759;-44
2022/08/09 12:34:38;;;;;;;2.13;0.50;;;24.60;99.90;;;;;;5056051;28;20075;-44
2022/08/09 12:37:04;;;;;;;2.15;0.40;;;24.90;99.90;;;;;;5056088;28;20089;-46
2022/08/09 12:39:30;;;;;;;2.42;0.80;;;24.90;99.90;;;;;;5053976;28;20102;-46
2022/08/09 12:42:06;;;;;;;1.95;0.93;;;24.40;99.90;;;;;;5053001;28;20841;-44
2022/08/09 12:44:34;;;;;;;1.35;0.70;;;24.20;99.90;;;;;;5055055;28;20078;-44
2022/08/09 12:46:59;;;;;;;0.63;0.50;;;24.20;99.90;;;;;;5055368;28;20076;-47
2022/08/09 12:49:25;;;;;;;1.65;0.80;;;24.10;99.90;;;;;;5056080;28;20672;-44
2022/08/09 12:51:55;;;;;;;1.42;0.63;;;24.40;99.90;;;;;;5054809;28;20041;-48
2022/08/09 12:54:23;;;;;;;3.55;0.68;;;24.20;99.90;;;;;;5054338;28;20040;-45
2022/08/09 12:56:49;;;;;;;1.52;0.88;;;24.50;99.90;;;;;;5054151;28;20040;-48